createdAt,value
2023-09-24T00:00:27.171Z,0.00
2023-09-24T00:01:27.104Z,0.00
2023-09-24T00:02:27.118Z,0.00
2023-09-24T00:03:27.069Z,0.00
2023-09-24T00:04:27.039Z,0.00
2023-09-24T00:05:26.980Z,0.00
2023-09-24T00:06:26.921Z,0.00
2023-09-24T00:07:26.924Z,0.00
2023-09-24T00:08:26.898Z,0.00
2023-09-24T00:09:26.866Z,0.00
2023-09-24T00:10:26.845Z,0.00
2023-09-24T00:11:26.836Z,0.00
2023-09-24T00:12:26.802Z,0.00
2023-09-24T00:13:26.768Z,0.00
2023-09-24T00:14:26.772Z,0.00
2023-09-24T00:15:26.750Z,0.00
2023-09-24T00:16:26.680Z,0.00
2023-09-24T00:17:26.745Z,0.00
2023-09-24T00:18:26.691Z,0.00
2023-09-24T00:19:26.604Z,0.00
2023-09-24T00:20:26.602Z,0.00
2023-09-24T00:21:26.569Z,0.00
2023-09-24T00:22:28.160Z,0.00
2023-09-24T00:23:26.535Z,0.00
2023-09-24T00:24:26.476Z,0.00
2023-09-24T00:25:26.473Z,0.00
2023-09-24T00:26:26.463Z,0.00
2023-09-24T00:27:26.470Z,0.00
2023-09-24T00:28:26.389Z,0.00
2023-09-24T00:29:26.405Z,0.00
2023-09-24T00:30:26.360Z,0.00
2023-09-24T00:31:26.354Z,0.00
2023-09-24T00:32:26.346Z,0.00
2023-09-24T00:33:26.366Z,0.00
2023-09-24T00:34:26.247Z,0.00
2023-09-24T00:35:26.272Z,0.00
2023-09-24T00:36:26.215Z,0.00
2023-09-24T00:37:26.177Z,0.00
2023-09-24T00:38:26.178Z,0.00
2023-09-24T00:39:26.124Z,0.00
2023-09-24T00:40:26.098Z,0.00
2023-09-24T00:41:26.111Z,0.00
2023-09-24T00:42:26.046Z,0.00
2023-09-24T00:43:26.022Z,0.00
2023-09-24T00:44:26.062Z,0.00
2023-09-24T00:45:25.972Z,0.00
2023-09-24T00:46:25.965Z,0.00
2023-09-24T00:47:26.011Z,0.00
2023-09-24T00:48:26.013Z,0.00
2023-09-24T00:49:25.879Z,0.00
2023-09-24T00:50:25.885Z,0.00
2023-09-24T00:51:25.840Z,0.00
2023-09-24T00:52:25.847Z,0.00
2023-09-24T00:53:25.807Z,0.00
2023-09-24T00:54:25.760Z,0.00
2023-09-24T00:55:25.728Z,0.00
2023-09-24T00:56:25.977Z,0.00
2023-09-24T00:57:25.695Z,0.00
2023-09-24T00:58:25.667Z,0.00
2023-09-24T00:59:25.670Z,0.00
2023-09-24T01:00:25.617Z,0.00
2023-09-24T01:01:25.964Z,0.00
2023-09-24T01:02:25.682Z,0.00
2023-09-24T01:03:25.636Z,0.00
2023-09-24T01:04:25.717Z,0.00
2023-09-24T01:05:25.563Z,0.00
2023-09-24T01:06:25.478Z,0.00
2023-09-24T01:07:25.444Z,0.00
2023-09-24T01:08:26.336Z,0.00
2023-09-24T01:09:25.416Z,0.00
2023-09-24T01:10:25.388Z,0.00
2023-09-24T01:11:25.410Z,0.00
2023-09-24T01:12:25.325Z,0.00
2023-09-24T01:13:25.307Z,0.00
2023-09-24T01:14:25.298Z,0.00
2023-09-24T01:15:25.254Z,0.00
2023-09-24T01:16:25.297Z,0.00
2023-09-24T01:17:25.217Z,0.00
2023-09-24T01:18:25.255Z,0.00
2023-09-24T01:19:25.158Z,0.00
2023-09-24T01:20:25.196Z,0.00
2023-09-24T01:21:25.173Z,0.00
2023-09-24T01:22:25.096Z,0.00
2023-09-24T01:23:25.122Z,0.00
2023-09-24T01:24:25.041Z,0.00
2023-09-24T01:25:25.109Z,0.00
2023-09-24T01:26:24.996Z,0.00
2023-09-24T01:27:24.959Z,0.00
2023-09-24T01:28:24.965Z,0.00
2023-09-24T01:29:24.964Z,0.00
2023-09-24T01:30:24.889Z,0.00
2023-09-24T01:31:24.866Z,0.00
2023-09-24T01:32:24.935Z,0.00
2023-09-24T01:33:24.903Z,0.00
2023-09-24T01:34:25.088Z,0.00
2023-09-24T01:35:24.809Z,0.00
2023-09-24T01:36:24.743Z,0.00
2023-09-24T01:37:24.759Z,0.00
2023-09-24T01:38:24.749Z,0.00
2023-09-24T01:39:24.702Z,0.00
2023-09-24T01:40:24.648Z,0.00
2023-09-24T01:41:24.692Z,0.00
2023-09-24T01:42:24.611Z,0.00
2023-09-24T01:43:24.572Z,0.00
2023-09-24T01:44:24.558Z,0.00
2023-09-24T01:45:24.519Z,0.00
2023-09-24T01:46:24.576Z,0.00
2023-09-24T01:47:24.589Z,0.00
2023-09-24T01:48:24.516Z,0.00
2023-09-24T01:49:24.467Z,0.00
2023-09-24T01:50:24.438Z,0.00
2023-09-24T01:51:24.387Z,0.00
2023-09-24T01:52:24.360Z,0.00
2023-09-24T01:53:24.394Z,0.00
2023-09-24T01:54:24.301Z,0.00
2023-09-24T01:55:24.290Z,0.00
2023-09-24T01:56:24.346Z,0.00
2023-09-24T01:57:24.229Z,0.00
2023-09-24T01:58:24.212Z,0.00
2023-09-24T01:59:24.222Z,0.00
2023-09-24T02:00:24.159Z,0.00
2023-09-24T02:01:24.253Z,0.00
2023-09-24T02:02:24.180Z,0.00
2023-09-24T02:03:24.220Z,0.00
2023-09-24T02:04:24.063Z,0.00
2023-09-24T02:05:24.184Z,0.00
2023-09-24T02:06:24.074Z,0.00
2023-09-24T02:07:24.007Z,0.00
2023-09-24T02:08:24.010Z,0.00
2023-09-24T02:09:23.941Z,0.00
2023-09-24T02:10:23.922Z,0.00
2023-09-24T02:11:23.928Z,0.00
2023-09-24T02:12:23.867Z,0.00
2023-09-24T02:13:23.835Z,0.00
2023-09-24T02:14:23.855Z,0.00
2023-09-24T02:15:23.797Z,0.00
2023-09-24T02:16:23.799Z,0.00
2023-09-24T02:17:23.760Z,0.00
2023-09-24T02:18:24.079Z,0.00
2023-09-24T02:19:23.710Z,0.00
2023-09-24T02:20:23.766Z,0.00
2023-09-24T02:21:23.632Z,0.00
2023-09-24T02:22:23.619Z,0.00
2023-09-24T02:23:23.852Z,0.00
2023-09-24T02:24:23.560Z,0.00
2023-09-24T02:25:23.526Z,0.00
2023-09-24T02:26:23.543Z,0.00
2023-09-24T02:27:23.481Z,0.00
2023-09-24T02:28:23.460Z,0.00
2023-09-24T02:29:23.480Z,0.00
2023-09-24T02:30:23.543Z,0.00
2023-09-24T02:31:23.401Z,0.00
2023-09-24T02:32:23.398Z,0.00
2023-09-24T02:33:23.423Z,0.00
2023-09-24T02:34:23.322Z,0.00
2023-09-24T02:35:23.325Z,0.00
2023-09-24T02:36:23.264Z,0.00
2023-09-24T02:37:23.240Z,0.00
2023-09-24T02:38:23.261Z,0.00
2023-09-24T02:39:23.200Z,0.00
2023-09-24T02:40:23.170Z,0.00
2023-09-24T02:41:23.208Z,0.00
2023-09-24T02:42:23.116Z,0.00
2023-09-24T02:43:23.111Z,0.00
2023-09-24T02:44:23.130Z,0.00
2023-09-24T02:45:23.052Z,0.00
2023-09-24T02:46:23.118Z,0.00
2023-09-24T02:47:23.059Z,0.00
2023-09-24T02:48:23.029Z,0.00
2023-09-24T02:49:22.932Z,0.00
2023-09-24T02:50:22.977Z,0.00
2023-09-24T02:51:22.892Z,0.00
2023-09-24T02:52:22.875Z,0.00
2023-09-24T02:53:22.972Z,0.00
2023-09-24T02:54:22.829Z,0.00
2023-09-24T02:55:22.789Z,0.00
2023-09-24T02:56:22.789Z,0.00
2023-09-24T02:57:22.747Z,0.00
2023-09-24T02:58:22.730Z,0.00
2023-09-24T02:59:22.695Z,0.00
2023-09-24T03:00:22.673Z,0.00
2023-09-24T03:01:22.684Z,0.00
2023-09-24T03:02:22.700Z,0.00
2023-09-24T03:03:22.679Z,0.00
2023-09-24T03:04:22.658Z,0.00
2023-09-24T03:05:22.547Z,0.00
2023-09-24T03:06:22.542Z,0.00
2023-09-24T03:07:22.518Z,0.00
2023-09-24T03:08:22.484Z,0.00
2023-09-24T03:09:22.452Z,0.00
2023-09-24T03:10:22.433Z,0.00
2023-09-24T03:11:22.418Z,0.00
2023-09-24T03:12:22.372Z,0.00
2023-09-24T03:13:22.367Z,0.00
2023-09-24T03:14:22.357Z,0.00
2023-09-24T03:15:22.313Z,0.00
2023-09-24T03:16:22.322Z,0.00
2023-09-24T03:17:22.258Z,0.00
2023-09-24T03:18:22.329Z,0.00
2023-09-24T03:19:22.223Z,0.00
2023-09-24T03:20:22.213Z,0.00
2023-09-24T03:21:22.152Z,0.00
2023-09-24T03:22:22.131Z,0.00
2023-09-24T03:23:22.120Z,0.00
2023-09-24T03:24:22.099Z,0.00
2023-09-24T03:25:22.077Z,0.00
2023-09-24T03:26:22.047Z,0.00
2023-09-24T03:27:22.016Z,0.00
2023-09-24T03:28:21.987Z,0.00
2023-09-24T03:29:21.966Z,0.00
2023-09-24T03:30:21.942Z,0.00
2023-09-24T03:31:21.940Z,0.00
2023-09-24T03:32:21.959Z,0.00
2023-09-24T03:33:21.918Z,0.00
2023-09-24T03:34:21.840Z,0.00
2023-09-24T03:35:21.807Z,0.00
2023-09-24T03:36:21.784Z,0.00
2023-09-24T03:37:21.768Z,0.00
2023-09-24T03:38:21.747Z,0.00
2023-09-24T03:39:21.798Z,0.00
2023-09-24T03:40:21.688Z,0.00
2023-09-24T03:41:21.655Z,0.00
2023-09-24T03:42:21.680Z,0.00
2023-09-24T03:43:21.608Z,0.00
2023-09-24T03:44:21.593Z,0.00
2023-09-24T03:45:21.592Z,0.00
2023-09-24T03:46:21.573Z,0.00
2023-09-24T03:47:21.515Z,0.00
2023-09-24T03:48:21.599Z,0.00
2023-09-24T03:49:22.302Z,0.00
2023-09-24T03:50:21.505Z,0.00
2023-09-24T03:51:21.433Z,0.00
2023-09-24T03:52:21.403Z,0.00
2023-09-24T03:53:21.375Z,0.00
2023-09-24T03:54:21.339Z,0.00
2023-09-24T03:55:21.612Z,0.00
2023-09-24T03:56:21.299Z,0.00
2023-09-24T03:57:21.268Z,0.00
2023-09-24T03:58:21.268Z,0.00
2023-09-24T03:59:21.264Z,0.00
2023-09-24T04:00:21.189Z,0.00
2023-09-24T04:01:21.174Z,0.00
2023-09-24T04:02:21.286Z,0.00
2023-09-24T04:03:21.291Z,0.00
2023-09-24T04:04:21.112Z,0.00
2023-09-24T04:05:21.316Z,0.00
2023-09-24T04:06:21.045Z,0.00
2023-09-24T04:07:21.039Z,0.00
2023-09-24T04:08:21.020Z,0.00
2023-09-24T04:09:20.970Z,0.00
2023-09-24T04:10:20.959Z,0.00
2023-09-24T04:11:20.936Z,0.00
2023-09-24T04:12:20.910Z,0.00
2023-09-24T04:13:20.867Z,0.00
2023-09-24T04:14:20.866Z,0.00
2023-09-24T04:15:20.853Z,0.00
2023-09-24T04:16:20.842Z,0.00
2023-09-24T04:17:20.775Z,0.00
2023-09-24T04:18:20.791Z,0.00
2023-09-24T04:19:20.730Z,0.00
2023-09-24T04:20:20.715Z,0.00
2023-09-24T04:21:20.686Z,0.00
2023-09-24T04:22:20.654Z,0.00
2023-09-24T04:23:20.621Z,0.00
2023-09-24T04:24:20.601Z,0.00
2023-09-24T04:25:20.569Z,0.00
2023-09-24T04:26:20.559Z,0.00
2023-09-24T04:27:20.543Z,0.00
2023-09-24T04:28:20.500Z,0.00
2023-09-24T04:29:20.473Z,0.00
2023-09-24T04:30:20.549Z,0.00
2023-09-24T04:31:20.429Z,0.00
2023-09-24T04:32:20.417Z,0.00
2023-09-24T04:33:21.430Z,0.00
2023-09-24T04:34:20.678Z,0.00
2023-09-24T04:35:20.509Z,0.00
2023-09-24T04:36:20.320Z,0.00
2023-09-24T04:37:20.289Z,0.00
2023-09-24T04:38:20.252Z,0.00
2023-09-24T04:39:20.219Z,0.00
2023-09-24T04:40:20.728Z,0.00
2023-09-24T04:41:20.173Z,0.00
2023-09-24T04:42:20.164Z,0.00
2023-09-24T04:43:20.128Z,0.00
2023-09-24T04:44:20.116Z,0.00
2023-09-24T04:45:20.267Z,0.00
2023-09-24T04:46:20.072Z,0.00
2023-09-24T04:47:20.073Z,0.00
2023-09-24T04:48:20.101Z,0.00
2023-09-24T04:49:20.214Z,0.00
2023-09-24T04:50:19.963Z,0.00
2023-09-24T04:51:19.939Z,0.00
2023-09-24T04:52:19.905Z,0.00
2023-09-24T04:53:19.880Z,0.00
2023-09-24T04:54:19.878Z,0.00
2023-09-24T04:55:19.824Z,0.00
2023-09-24T04:56:19.817Z,0.00
2023-09-24T04:57:19.784Z,0.00
2023-09-24T04:58:19.758Z,0.00
2023-09-24T04:59:19.731Z,0.00
2023-09-24T05:00:19.738Z,0.00
2023-09-24T05:01:19.681Z,0.00
2023-09-24T05:02:19.662Z,0.00
2023-09-24T05:03:19.732Z,0.00
2023-09-24T05:04:19.684Z,0.00
2023-09-24T05:05:19.652Z,0.00
2023-09-24T05:06:19.691Z,0.00
2023-09-24T05:07:19.565Z,0.00
2023-09-24T05:08:19.520Z,0.00
2023-09-24T05:09:19.517Z,5.63
2023-09-24T05:10:19.471Z,5.63
2023-09-24T05:11:19.444Z,5.63
2023-09-24T05:12:19.409Z,5.63
2023-09-24T05:13:19.405Z,5.63
2023-09-24T05:14:19.379Z,5.63
2023-09-24T05:15:19.340Z,5.63
2023-09-24T05:16:19.359Z,11.25
2023-09-24T05:17:19.300Z,11.25
2023-09-24T05:18:20.386Z,11.25
2023-09-24T05:19:19.243Z,11.25
2023-09-24T05:20:19.244Z,11.25
2023-09-24T05:21:19.193Z,16.88
2023-09-24T05:22:19.187Z,16.88
2023-09-24T05:23:19.143Z,16.88
2023-09-24T05:24:19.113Z,16.88
2023-09-24T05:25:19.108Z,22.50
2023-09-24T05:26:19.057Z,22.50
2023-09-24T05:27:19.048Z,22.50
2023-09-24T05:28:19.024Z,22.50
2023-09-24T05:29:19.824Z,28.13
2023-09-24T05:30:18.965Z,28.13
2023-09-24T05:31:19.033Z,28.13
2023-09-24T05:32:18.946Z,28.13
2023-09-24T05:33:19.009Z,33.75
2023-09-24T05:34:18.891Z,33.75
2023-09-24T05:35:18.930Z,33.75
2023-09-24T05:36:18.838Z,33.75
2023-09-24T05:37:18.804Z,39.38
2023-09-24T05:38:18.768Z,39.38
2023-09-24T05:39:18.756Z,39.38
2023-09-24T05:40:18.727Z,39.38
2023-09-24T05:41:18.696Z,39.38
2023-09-24T05:42:18.700Z,45.00
2023-09-24T05:43:18.643Z,45.00
2023-09-24T05:44:18.631Z,45.00
2023-09-24T05:45:18.630Z,45.00
2023-09-24T05:46:18.616Z,50.63
2023-09-24T05:47:18.548Z,50.63
2023-09-24T05:48:18.622Z,50.63
2023-09-24T05:49:18.501Z,50.63
2023-09-24T05:50:18.598Z,50.63
2023-09-24T05:51:18.445Z,56.25
2023-09-24T05:52:18.432Z,56.25
2023-09-24T05:53:18.400Z,56.25
2023-09-24T05:54:18.365Z,56.25
2023-09-24T05:55:18.411Z,56.25
2023-09-24T05:56:18.321Z,61.88
2023-09-24T05:57:18.394Z,61.88
2023-09-24T05:58:18.289Z,61.88
2023-09-24T05:59:18.255Z,67.50
2023-09-24T06:00:18.216Z,67.50
2023-09-24T06:01:18.243Z,73.13
2023-09-24T06:02:18.201Z,73.13
2023-09-24T06:03:18.277Z,73.13
2023-09-24T06:04:18.291Z,73.13
2023-09-24T06:05:18.119Z,78.75
2023-09-24T06:06:18.082Z,78.75
2023-09-24T06:07:18.065Z,78.75
2023-09-24T06:08:18.049Z,78.75
2023-09-24T06:09:18.052Z,84.38
2023-09-24T06:10:17.984Z,84.38
2023-09-24T06:11:17.953Z,84.38
2023-09-24T06:12:17.929Z,84.38
2023-09-24T06:13:17.909Z,84.38
2023-09-24T06:14:17.897Z,84.38
2023-09-24T06:15:17.857Z,84.38
2023-09-24T06:16:17.889Z,90.00
2023-09-24T06:17:17.809Z,90.00
2023-09-24T06:18:17.874Z,90.00
2023-09-24T06:19:17.758Z,90.00
2023-09-24T06:20:17.733Z,90.00
2023-09-24T06:21:17.828Z,90.00
2023-09-24T06:22:17.678Z,90.00
2023-09-24T06:23:18.343Z,90.00
2023-09-24T06:24:17.686Z,90.00
2023-09-24T06:25:17.619Z,90.00
2023-09-24T06:26:17.578Z,90.00
2023-09-24T06:27:17.564Z,90.00
2023-09-24T06:28:17.542Z,95.63
2023-09-24T06:29:17.528Z,95.63
2023-09-24T06:30:17.531Z,95.63
2023-09-24T06:31:17.468Z,95.63
2023-09-24T06:32:17.431Z,95.63
2023-09-24T06:33:17.496Z,95.63
2023-09-24T06:34:17.446Z,95.63
2023-09-24T06:35:17.365Z,95.63
2023-09-24T06:36:17.406Z,95.63
2023-09-24T06:37:17.360Z,95.63
2023-09-24T06:38:17.298Z,95.63
2023-09-24T06:39:17.317Z,101.25
2023-09-24T06:40:17.242Z,101.25
2023-09-24T06:41:17.224Z,101.25
2023-09-24T06:42:17.219Z,101.25
2023-09-24T06:43:17.177Z,101.25
2023-09-24T06:44:17.157Z,101.25
2023-09-24T06:45:17.165Z,101.25
2023-09-24T06:46:17.102Z,101.25
2023-09-24T06:47:17.084Z,101.25
2023-09-24T06:48:21.840Z,101.25
2023-09-24T06:49:17.040Z,101.25
2023-09-24T06:50:18.887Z,101.25
2023-09-24T06:51:17.907Z,101.25
2023-09-24T06:52:19.361Z,101.25
2023-09-24T06:53:17.898Z,106.88
2023-09-24T06:54:16.995Z,106.88
2023-09-24T06:55:16.894Z,106.88
2023-09-24T06:56:16.867Z,106.88
2023-09-24T06:57:16.834Z,106.88
2023-09-24T06:58:16.803Z,106.88
2023-09-24T06:59:16.791Z,106.88
2023-09-24T07:00:16.755Z,106.88
2023-09-24T07:01:16.818Z,106.88
2023-09-24T07:02:16.715Z,106.88
2023-09-24T07:03:16.804Z,106.88
2023-09-24T07:04:16.840Z,112.50
2023-09-24T07:05:18.656Z,112.50
2023-09-24T07:06:16.704Z,112.50
2023-09-24T07:07:16.589Z,112.50
2023-09-24T07:08:16.567Z,112.50
2023-09-24T07:09:16.625Z,112.50
2023-09-24T07:10:16.522Z,118.13
2023-09-24T07:11:16.499Z,118.13
2023-09-24T07:12:16.518Z,118.13
2023-09-24T07:13:16.445Z,118.13
2023-09-24T07:14:16.426Z,118.13
2023-09-24T07:15:16.452Z,118.13
2023-09-24T07:16:16.461Z,123.75
2023-09-24T07:17:16.370Z,123.75
2023-09-24T07:18:16.425Z,118.13
2023-09-24T07:19:16.328Z,118.13
2023-09-24T07:20:16.290Z,123.75
2023-09-24T07:21:31.103Z,123.75
2023-09-24T07:22:16.237Z,123.75
2023-09-24T07:23:16.229Z,123.75
2023-09-24T07:24:16.237Z,129.38
2023-09-24T07:25:16.175Z,129.38
2023-09-24T07:26:16.143Z,129.38
2023-09-24T07:27:16.166Z,129.38
2023-09-24T07:28:16.095Z,135.00
2023-09-24T07:29:16.067Z,135.00
2023-09-24T07:30:16.066Z,140.63
2023-09-24T07:31:16.021Z,140.63
2023-09-24T07:32:16.039Z,140.63
2023-09-24T07:33:16.064Z,146.25
2023-09-24T07:34:15.954Z,146.25
2023-09-24T07:35:15.930Z,146.25
2023-09-24T07:36:31.150Z,146.25
2023-09-24T07:37:15.912Z,146.25
2023-09-24T07:38:15.869Z,151.88
2023-09-24T07:39:15.971Z,151.88
2023-09-24T07:40:15.809Z,146.25
2023-09-24T07:41:15.795Z,146.25
2023-09-24T07:42:15.831Z,151.88
2023-09-24T07:43:15.744Z,151.88
2023-09-24T07:44:15.759Z,151.88
2023-09-24T07:45:15.732Z,151.88
2023-09-24T07:46:15.762Z,151.88
2023-09-24T07:47:15.695Z,157.50
2023-09-24T07:48:15.732Z,163.13
2023-09-24T07:49:15.659Z,163.13
2023-09-24T07:50:15.595Z,163.13
2023-09-24T07:51:15.568Z,163.13
2023-09-24T07:52:15.600Z,163.13
2023-09-24T07:53:15.532Z,163.13
2023-09-24T07:54:15.547Z,163.13
2023-09-24T07:55:15.485Z,163.13
2023-09-24T07:56:15.499Z,157.50
2023-09-24T07:57:15.447Z,157.50
2023-09-24T07:58:15.432Z,157.50
2023-09-24T07:59:15.400Z,157.50
2023-09-24T08:00:15.404Z,163.13
2023-09-24T08:01:15.477Z,163.13
2023-09-24T08:02:15.330Z,168.75
2023-09-24T08:03:15.383Z,174.38
2023-09-24T08:04:15.282Z,180.00
2023-09-24T08:05:15.310Z,180.00
2023-09-24T08:06:15.293Z,185.63
2023-09-24T08:07:15.230Z,185.63
2023-09-24T08:08:15.295Z,191.25
2023-09-24T08:09:25.166Z,191.25
2023-09-24T08:10:15.168Z,196.88
2023-09-24T08:11:15.156Z,196.88
2023-09-24T08:12:15.174Z,196.88
2023-09-24T08:13:15.107Z,196.88
2023-09-24T08:14:15.162Z,202.50
2023-09-24T08:15:15.218Z,202.50
2023-09-24T08:16:15.162Z,202.50
2023-09-24T08:17:15.034Z,202.50
2023-09-24T08:18:15.046Z,202.50
2023-09-24T08:19:15.218Z,202.50
2023-09-24T08:20:14.988Z,202.50
2023-09-24T08:21:15.036Z,208.13
2023-09-24T08:22:14.953Z,208.13
2023-09-24T08:23:14.927Z,208.13
2023-09-24T08:24:14.940Z,208.13
2023-09-24T08:25:14.926Z,208.13
2023-09-24T08:26:14.870Z,208.13
2023-09-24T08:27:14.891Z,213.75
2023-09-24T08:28:14.851Z,213.75
2023-09-24T08:29:14.868Z,213.75
2023-09-24T08:30:14.876Z,213.75
2023-09-24T08:31:14.829Z,213.75
2023-09-24T08:32:14.767Z,213.75
2023-09-24T08:33:15.560Z,213.75
2023-09-24T08:34:14.744Z,213.75
2023-09-24T08:35:14.720Z,219.38
2023-09-24T08:36:14.721Z,219.38
2023-09-24T08:37:14.685Z,219.38
2023-09-24T08:38:14.695Z,225.00
2023-09-24T08:39:14.836Z,225.00
2023-09-24T08:40:14.628Z,230.63
2023-09-24T08:41:14.637Z,230.63
2023-09-24T08:42:14.639Z,230.63
2023-09-24T08:43:14.582Z,230.63
2023-09-24T08:44:14.627Z,230.63
2023-09-24T08:45:14.695Z,230.63
2023-09-24T08:46:14.570Z,230.63
2023-09-24T08:47:14.524Z,230.63
2023-09-24T08:48:14.538Z,236.25
2023-09-24T08:49:14.497Z,236.25
2023-09-24T08:50:14.490Z,236.25
2023-09-24T08:51:14.539Z,236.25
2023-09-24T08:52:14.435Z,241.88
2023-09-24T08:53:14.450Z,241.88
2023-09-24T08:54:14.426Z,241.88
2023-09-24T08:55:14.423Z,241.88
2023-09-24T08:56:16.531Z,247.50
2023-09-24T08:57:14.409Z,247.50
2023-09-24T08:58:14.371Z,247.50
2023-09-24T08:59:14.334Z,247.50
2023-09-24T09:00:14.380Z,247.50
2023-09-24T09:01:14.375Z,253.13
2023-09-24T09:02:14.370Z,253.13
2023-09-24T09:03:14.368Z,253.13
2023-09-24T09:04:14.250Z,258.75
2023-09-24T09:05:14.270Z,258.75
2023-09-24T09:06:14.254Z,258.75
2023-09-24T09:07:14.219Z,264.38
2023-09-24T09:08:14.231Z,264.38
2023-09-24T09:09:14.208Z,264.38
2023-09-24T09:10:14.150Z,270.00
2023-09-24T09:11:14.141Z,270.00
2023-09-24T09:12:14.143Z,275.63
2023-09-24T09:13:14.134Z,275.63
2023-09-24T09:14:14.123Z,275.63
2023-09-24T09:15:14.156Z,281.25
2023-09-24T09:16:14.128Z,281.25
2023-09-24T09:17:14.046Z,281.25
2023-09-24T09:18:14.068Z,286.88
2023-09-24T09:19:14.021Z,286.88
2023-09-24T09:20:13.997Z,292.50
2023-09-24T09:21:14.029Z,298.13
2023-09-24T09:22:13.980Z,292.50
2023-09-24T09:23:13.972Z,303.75
2023-09-24T09:24:14.005Z,298.13
2023-09-24T09:25:13.937Z,298.13
2023-09-24T09:26:13.939Z,298.13
2023-09-24T09:27:13.931Z,298.13
2023-09-24T09:28:13.892Z,303.75
2023-09-24T09:29:13.872Z,303.75
2023-09-24T09:30:13.967Z,309.38
2023-09-24T09:31:13.900Z,309.38
2023-09-24T09:32:13.825Z,309.38
2023-09-24T09:33:13.887Z,315.00
2023-09-24T09:34:13.791Z,320.63
2023-09-24T09:35:13.794Z,320.63
2023-09-24T09:36:13.783Z,326.25
2023-09-24T09:37:13.748Z,331.88
2023-09-24T09:38:13.730Z,331.88
2023-09-24T09:39:13.802Z,331.88
2023-09-24T09:40:13.700Z,337.50
2023-09-24T09:41:13.682Z,337.50
2023-09-24T09:42:13.722Z,343.13
2023-09-24T09:43:13.677Z,343.13
2023-09-24T09:44:13.635Z,348.75
2023-09-24T09:45:13.664Z,354.38
2023-09-24T09:46:13.644Z,354.38
2023-09-24T09:47:13.590Z,360.00
2023-09-24T09:48:13.676Z,365.63
2023-09-24T09:49:13.567Z,376.88
2023-09-24T09:50:13.569Z,382.50
2023-09-24T09:51:13.563Z,382.50
2023-09-24T09:52:13.545Z,388.13
2023-09-24T09:53:13.507Z,393.75
2023-09-24T09:54:13.585Z,399.38
2023-09-24T09:55:13.491Z,405.00
2023-09-24T09:56:13.464Z,410.63
2023-09-24T09:57:13.472Z,421.88
2023-09-24T09:58:23.056Z,348.75
2023-09-24T09:59:13.435Z,421.88
2023-09-24T10:00:13.426Z,438.75
2023-09-24T10:01:13.394Z,455.63
2023-09-24T10:02:13.382Z,466.88
2023-09-24T10:03:13.437Z,483.75
2023-09-24T10:04:13.358Z,495.00
2023-09-24T10:05:13.441Z,495.00
2023-09-24T10:06:13.447Z,416.25
2023-09-24T10:07:13.315Z,534.38
2023-09-24T10:08:13.301Z,551.25
2023-09-24T10:09:13.347Z,573.75
2023-09-24T10:10:13.264Z,213.75
2023-09-24T10:11:13.258Z,213.75
2023-09-24T10:12:13.263Z,213.75
2023-09-24T10:13:13.229Z,455.63
2023-09-24T10:14:13.219Z,658.13
2023-09-24T10:15:13.207Z,652.50
2023-09-24T10:16:13.207Z,613.13
2023-09-24T10:17:13.168Z,697.50
2023-09-24T10:18:13.244Z,219.38
2023-09-24T10:19:13.722Z,568.13
2023-09-24T10:20:13.132Z,388.13
2023-09-24T10:21:13.138Z,736.88
2023-09-24T10:22:13.105Z,787.50
2023-09-24T10:23:13.090Z,798.75
2023-09-24T10:24:13.151Z,821.25
2023-09-24T10:25:13.066Z,855.00
2023-09-24T10:26:13.057Z,860.63
2023-09-24T10:27:13.265Z,877.50
2023-09-24T10:28:13.066Z,236.25
2023-09-24T10:29:13.010Z,376.88
2023-09-24T10:30:13.053Z,230.63
2023-09-24T10:31:12.989Z,241.88
2023-09-24T10:32:13.028Z,270.00
2023-09-24T10:33:13.037Z,770.63
2023-09-24T10:34:13.015Z,331.88
2023-09-24T10:35:12.946Z,444.38
2023-09-24T10:36:12.969Z,331.88
2023-09-24T10:37:12.902Z,331.88
2023-09-24T10:38:14.296Z,360.00
2023-09-24T10:39:12.952Z,348.75
2023-09-24T10:40:12.903Z,303.75
2023-09-24T10:41:12.865Z,326.25
2023-09-24T10:42:12.880Z,725.63
2023-09-24T10:43:12.820Z,579.38
2023-09-24T10:44:12.805Z,1170.00
2023-09-24T10:45:12.864Z,320.63
2023-09-24T10:46:12.839Z,1175.63
2023-09-24T10:47:12.762Z,1080.00
2023-09-24T10:48:12.840Z,1057.50
2023-09-24T10:49:12.802Z,315.00
2023-09-24T10:50:12.786Z,1035.00
2023-09-24T10:51:12.731Z,528.75
2023-09-24T10:52:12.737Z,922.50
2023-09-24T10:53:12.687Z,1164.38
2023-09-24T10:54:12.707Z,433.13
2023-09-24T10:55:12.657Z,860.63
2023-09-24T10:56:12.644Z,714.38
2023-09-24T10:57:12.691Z,1215.00
2023-09-24T10:58:12.671Z,1215.00
2023-09-24T10:59:12.614Z,1203.75
2023-09-24T11:00:12.809Z,1051.88
2023-09-24T11:01:12.803Z,303.75
2023-09-24T11:02:12.720Z,326.25
2023-09-24T11:03:12.845Z,601.88
2023-09-24T11:04:12.781Z,1333.13
2023-09-24T11:05:12.583Z,1333.13
2023-09-24T11:06:12.623Z,382.50
2023-09-24T11:07:12.582Z,348.75
2023-09-24T11:08:12.615Z,360.00
2023-09-24T11:09:12.592Z,388.13
2023-09-24T11:10:12.518Z,376.88
2023-09-24T11:11:12.471Z,388.13
2023-09-24T11:12:12.479Z,416.25
2023-09-24T11:13:12.436Z,506.25
2023-09-24T11:14:12.426Z,1355.63
2023-09-24T11:15:16.099Z,444.38
2023-09-24T11:16:12.459Z,433.13
2023-09-24T11:17:12.392Z,714.38
2023-09-24T11:18:12.521Z,1451.25
2023-09-24T11:19:12.387Z,1468.13
2023-09-24T11:20:12.402Z,725.63
2023-09-24T11:21:12.372Z,1333.13
2023-09-24T11:22:12.328Z,472.50
2023-09-24T11:23:12.457Z,1535.63
2023-09-24T11:24:12.336Z,1603.13
2023-09-24T11:25:12.285Z,1653.75
2023-09-24T11:26:12.285Z,1614.38
2023-09-24T11:27:12.308Z,1575.00
2023-09-24T11:28:12.258Z,1456.88
2023-09-24T11:29:12.978Z,607.50
2023-09-24T11:30:12.356Z,1620.00
2023-09-24T11:31:12.262Z,1614.38
2023-09-24T11:32:12.213Z,995.63
2023-09-24T11:33:12.328Z,1321.88
2023-09-24T11:34:12.202Z,1586.25
2023-09-24T11:35:12.191Z,1614.38
2023-09-24T11:36:12.225Z,1614.38
2023-09-24T11:37:12.980Z,1575.00
2023-09-24T11:38:12.164Z,1580.63
2023-09-24T11:39:12.222Z,1631.25
2023-09-24T11:40:12.168Z,1693.13
2023-09-24T11:41:12.170Z,703.13
2023-09-24T11:42:12.254Z,545.63
2023-09-24T11:43:12.124Z,416.25
2023-09-24T11:44:12.122Z,393.75
2023-09-24T11:45:12.148Z,376.88
2023-09-24T11:46:12.156Z,354.38
2023-09-24T11:47:12.106Z,348.75
2023-09-24T11:48:12.277Z,376.88
2023-09-24T11:49:12.086Z,331.88
2023-09-24T11:50:12.061Z,365.63
2023-09-24T11:51:12.157Z,433.13
2023-09-24T11:52:12.043Z,472.50
2023-09-24T11:53:12.041Z,900.00
2023-09-24T11:54:12.064Z,1704.38
2023-09-24T11:55:12.023Z,1698.75
2023-09-24T11:56:12.023Z,810.00
2023-09-24T11:57:12.021Z,1845.00
2023-09-24T11:58:11.986Z,1878.75
2023-09-24T11:59:11.995Z,658.13
2023-09-24T12:00:11.995Z,1687.50
2023-09-24T12:01:12.008Z,534.38
2023-09-24T12:02:11.947Z,483.75
2023-09-24T12:03:12.013Z,450.00
2023-09-24T12:04:12.092Z,500.63
2023-09-24T12:05:22.796Z,416.25
2023-09-24T12:06:11.946Z,393.75
2023-09-24T12:07:11.879Z,421.88
2023-09-24T12:08:11.872Z,1681.88
2023-09-24T12:09:11.891Z,1715.63
2023-09-24T12:10:11.854Z,1738.13
2023-09-24T12:11:11.847Z,1760.63
2023-09-24T12:12:11.879Z,1755.00
2023-09-24T12:13:11.826Z,1698.75
2023-09-24T12:14:11.830Z,1704.38
2023-09-24T12:15:11.850Z,1631.25
2023-09-24T12:16:11.894Z,1665.00
2023-09-24T12:17:11.862Z,1642.50
2023-09-24T12:18:11.793Z,1636.88
2023-09-24T12:19:11.755Z,1710.00
2023-09-24T12:20:11.762Z,1811.25
2023-09-24T12:21:11.761Z,1811.25
2023-09-24T12:22:11.751Z,551.25
2023-09-24T12:23:11.721Z,466.88
2023-09-24T12:24:11.755Z,421.88
2023-09-24T12:25:11.715Z,410.63
2023-09-24T12:26:11.726Z,382.50
2023-09-24T12:27:11.752Z,393.75
2023-09-24T12:28:11.784Z,483.75
2023-09-24T12:29:11.669Z,1603.13
2023-09-24T12:30:11.856Z,1755.00
2023-09-24T12:31:11.679Z,1800.00
2023-09-24T12:32:11.665Z,1805.63
2023-09-24T12:33:14.051Z,1794.38
2023-09-24T12:34:11.650Z,1749.38
2023-09-24T12:35:11.627Z,1732.50
2023-09-24T12:36:11.737Z,1755.00
2023-09-24T12:37:11.616Z,1766.25
2023-09-24T12:38:11.685Z,1743.75
2023-09-24T12:39:11.616Z,1771.88
2023-09-24T12:40:11.574Z,1783.13
2023-09-24T12:41:11.574Z,1805.63
2023-09-24T12:42:11.576Z,1861.88
2023-09-24T12:43:11.560Z,523.13
2023-09-24T12:44:11.549Z,1822.50
2023-09-24T12:45:11.651Z,1867.50
2023-09-24T12:46:11.616Z,832.50
2023-09-24T12:47:11.555Z,405.00
2023-09-24T12:48:11.637Z,483.75